sensor_id;sensor_type;location;lat;lon;timestamp;P1;durP1;ratioP1;P2;durP2;ratioP2
13102;SDS011;52970;46.752;17.108;2022-12-24T00:01:23;14.90;;;10.77;;
13102;SDS011;52970;46.752;17.108;2022-12-24T00:03:48;15.65;;;11.35;;
13102;SDS011;52970;46.752;17.108;2022-12-24T00:06:15;18.42;;;12.27;;
13102;SDS011;52970;46.752;17.108;2022-12-24T00:08:40;22.02;;;15.02;;
13102;SDS011;52970;46.752;17.108;2022-12-24T00:11:06;20.23;;;13.35;;
13102;SDS011;52970;46.752;17.108;2022-12-24T00:13:31;16.80;;;11.45;;
13102;SDS011;52970;46.752;17.108;2022-12-24T00:15:56;18.00;;;11.13;;
13102;SDS011;52970;46.752;17.108;2022-12-24T00:18:22;13.00;;;9.80;;
13102;SDS011;52970;46.752;17.108;2022-12-24T00:20:47;13.00;;;9.70;;
13102;SDS011;52970;46.752;17.108;2022-12-24T00:23:13;16.05;;;9.95;;
13102;SDS011;52970;46.752;17.108;2022-12-24T00:25:38;11.75;;;9.13;;
13102;SDS011;52970;46.752;17.108;2022-12-24T00:28:03;11.93;;;9.40;;
13102;SDS011;52970;46.752;17.108;2022-12-24T00:30:28;12.02;;;8.57;;
13102;SDS011;52970;46.752;17.108;2022-12-24T00:32:54;11.52;;;8.57;;
13102;SDS011;52970;46.752;17.108;2022-12-24T00:35:19;12.05;;;8.40;;
13102;SDS011;52970;46.752;17.108;2022-12-24T00:37:47;9.10;;;7.35;;
13102;SDS011;52970;46.752;17.108;2022-12-24T00:40:13;9.05;;;7.07;;
13102;SDS011;52970;46.752;17.108;2022-12-24T00:42:38;11.52;;;7.88;;
13102;SDS011;52970;46.752;17.108;2022-12-24T00:45:04;9.35;;;7.32;;
13102;SDS011;52970;46.752;17.108;2022-12-24T00:47:29;10.90;;;7.60;;
13102;SDS011;52970;46.752;17.108;2022-12-24T00:49:54;11.18;;;8.32;;
13102;SDS011;52970;46.752;17.108;2022-12-24T00:52:20;9.23;;;7.95;;
13102;SDS011;52970;46.752;17.108;2022-12-24T00:54:45;12.05;;;8.88;;
13102;SDS011;52970;46.752;17.108;2022-12-24T00:57:10;11.02;;;8.10;;
13102;SDS011;52970;46.752;17.108;2022-12-24T00:59:35;9.77;;;8.25;;
13102;SDS011;52970;46.752;17.108;2022-12-24T01:02:01;11.45;;;8.88;;
13102;SDS011;52970;46.752;17.108;2022-12-24T01:04:26;16.02;;;8.40;;
13102;SDS011;52970;46.752;17.108;2022-12-24T01:07:10;10.07;;;8.07;;
13102;SDS011;52970;46.752;17.108;2022-12-24T01:09:35;11.05;;;8.15;;
13102;SDS011;52970;46.752;17.108;2022-12-24T01:12:00;11.45;;;8.18;;
13102;SDS011;52970;46.752;17.108;2022-12-24T01:14:26;10.50;;;7.38;;
13102;SDS011;52970;46.752;17.108;2022-12-24T01:16:51;9.75;;;7.40;;
13102;SDS011;52970;46.752;17.108;2022-12-24T01:19:16;9.88;;;7.57;;
13102;SDS011;52970;46.752;17.108;2022-12-24T01:21:41;9.77;;;7.30;;
13102;SDS011;52970;46.752;17.108;2022-12-24T01:24:09;13.95;;;9.27;;
13102;SDS011;52970;46.752;17.108;2022-12-24T01:26:37;12.20;;;9.02;;
13102;SDS011;52970;46.752;17.108;2022-12-24T01:29:02;10.23;;;7.75;;
13102;SDS011;52970;46.752;17.108;2022-12-24T01:31:28;13.10;;;8.20;;
13102;SDS011;52970;46.752;17.108;2022-12-24T01:33:53;9.90;;;7.43;;
13102;SDS011;52970;46.752;17.108;2022-12-24T01:36:18;8.98;;;7.50;;
13102;SDS011;52970;46.752;17.108;2022-12-24T01:38:44;14.25;;;9.98;;
13102;SDS011;52970;46.752;17.108;2022-12-24T01:41:13;52.60;;;26.25;;
13102;SDS011;52970;46.752;17.108;2022-12-24T01:43:57;41.42;;;20.45;;
13102;SDS011;52970;46.752;17.108;2022-12-24T01:46:23;72.88;;;34.55;;
13102;SDS011;52970;46.752;17.108;2022-12-24T01:53:41;30.38;;;18.40;;
13102;SDS011;52970;46.752;17.108;2022-12-24T01:56:07;23.38;;;14.60;;
13102;SDS011;52970;46.752;17.108;2022-12-24T01:58:33;22.77;;;13.52;;
13102;SDS011;52970;46.752;17.108;2022-12-24T02:01:00;11.52;;;8.20;;
13102;SDS011;52970;46.752;17.108;2022-12-24T02:03:25;18.15;;;10.85;;
13102;SDS011;52970;46.752;17.108;2022-12-24T02:05:51;12.70;;;9.15;;
13102;SDS011;52970;46.752;17.108;2022-12-24T02:08:18;11.32;;;7.93;;
13102;SDS011;52970;46.752;17.108;2022-12-24T02:10:45;14.20;;;8.27;;
13102;SDS011;52970;46.752;17.108;2022-12-24T02:13:11;17.33;;;9.05;;
13102;SDS011;52970;46.752;17.108;2022-12-24T02:18:13;16.80;;;11.88;;
13102;SDS011;52970;46.752;17.108;2022-12-24T02:20:52;14.57;;;9.25;;
13102;SDS011;52970;46.752;17.108;2022-12-24T02:26:06;12.48;;;9.15;;
13102;SDS011;52970;46.752;17.108;2022-12-24T02:31:29;11.85;;;8.98;;
13102;SDS011;52970;46.752;17.108;2022-12-24T02:34:06;11.95;;;8.98;;
13102;SDS011;52970;46.752;17.108;2022-12-24T02:36:34;8.55;;;6.90;;
13102;SDS011;52970;46.752;17.108;2022-12-24T02:39:02;12.00;;;8.95;;
13102;SDS011;52970;46.752;17.108;2022-12-24T02:41:50;11.68;;;8.43;;
13102;SDS011;52970;46.752;17.108;2022-12-24T02:44:43;11.80;;;8.10;;
13102;SDS011;52970;46.752;17.108;2022-12-24T02:47:10;8.75;;;7.25;;
13102;SDS011;52970;46.752;17.108;2022-12-24T02:49:35;8.57;;;6.60;;
13102;SDS011;52970;46.752;17.108;2022-12-24T02:52:01;8.65;;;6.28;;
13102;SDS011;52970;46.752;17.108;2022-12-24T02:54:26;9.32;;;7.28;;
13102;SDS011;52970;46.752;17.108;2022-12-24T03:02:06;16.60;;;11.23;;
13102;SDS011;52970;46.752;17.108;2022-12-24T03:04:39;9.98;;;8.25;;
13102;SDS011;52970;46.752;17.108;2022-12-24T03:07:17;8.40;;;7.38;;
13102;SDS011;52970;46.752;17.108;2022-12-24T03:12:11;9.13;;;7.60;;
13102;SDS011;52970;46.752;17.108;2022-12-24T03:14:38;8.65;;;6.93;;
13102;SDS011;52970;46.752;17.108;2022-12-24T03:17:04;7.85;;;6.30;;
13102;SDS011;52970;46.752;17.108;2022-12-24T03:19:30;7.50;;;6.70;;
13102;SDS011;52970;46.752;17.108;2022-12-24T03:21:55;11.18;;;6.30;;
13102;SDS011;52970;46.752;17.108;2022-12-24T03:24:22;7.32;;;6.20;;
13102;SDS011;52970;46.752;17.108;2022-12-24T03:26:47;8.00;;;6.03;;
13102;SDS011;52970;46.752;17.108;2022-12-24T03:29:13;6.95;;;6.25;;
13102;SDS011;52970;46.752;17.108;2022-12-24T03:31:45;7.45;;;6.65;;
13102;SDS011;52970;46.752;17.108;2022-12-24T03:34:11;6.95;;;5.60;;
13102;SDS011;52970;46.752;17.108;2022-12-24T03:36:37;8.23;;;6.82;;
13102;SDS011;52970;46.752;17.108;2022-12-24T03:39:03;7.57;;;6.22;;
13102;SDS011;52970;46.752;17.108;2022-12-24T03:41:28;15.07;;;9.15;;
13102;SDS011;52970;46.752;17.108;2022-12-24T03:43:53;10.93;;;7.47;;
13102;SDS011;52970;46.752;17.108;2022-12-24T03:46:18;10.00;;;6.78;;
13102;SDS011;52970;46.752;17.108;2022-12-24T03:48:44;7.40;;;6.15;;
13102;SDS011;52970;46.752;17.108;2022-12-24T03:51:19;8.48;;;6.20;;
13102;SDS011;52970;46.752;17.108;2022-12-24T03:53:45;7.85;;;5.68;;
13102;SDS011;52970;46.752;17.108;2022-12-24T03:56:10;6.72;;;6.05;;
13102;SDS011;52970;46.752;17.108;2022-12-24T03:58:35;6.68;;;5.60;;
13102;SDS011;52970;46.752;17.108;2022-12-24T04:01:02;7.50;;;5.53;;
13102;SDS011;52970;46.752;17.108;2022-12-24T04:03:27;9.32;;;5.20;;
13102;SDS011;52970;46.752;17.108;2022-12-24T04:06:06;6.15;;;5.45;;
13102;SDS011;52970;46.752;17.108;2022-12-24T04:08:31;7.32;;;5.65;;
13102;SDS011;52970;46.752;17.108;2022-12-24T04:10:57;6.97;;;5.45;;
13102;SDS011;52970;46.752;17.108;2022-12-24T04:13:22;5.75;;;5.15;;
13102;SDS011;52970;46.752;17.108;2022-12-24T04:16:00;6.05;;;5.40;;
13102;SDS011;52970;46.752;17.108;2022-12-24T04:18:26;7.53;;;5.32;;
13102;SDS011;52970;46.752;17.108;2022-12-24T04:20:52;5.90;;;5.38;;
13102;SDS011;52970;46.752;17.108;2022-12-24T04:23:17;7.00;;;5.30;;
13102;SDS011;52970;46.752;17.108;2022-12-24T04:25:42;5.22;;;4.78;;
13102;SDS011;52970;46.752;17.108;2022-12-24T04:28:08;6.18;;;5.05;;
13102;SDS011;52970;46.752;17.108;2022-12-24T04:30:33;5.05;;;4.32;;
13102;SDS011;52970;46.752;17.108;2022-12-24T04:32:58;8.90;;;5.53;;
13102;SDS011;52970;46.752;17.108;2022-12-24T04:35:23;6.70;;;5.20;;
13102;SDS011;52970;46.752;17.108;2022-12-24T04:37:49;5.63;;;5.07;;
13102;SDS011;52970;46.752;17.108;2022-12-24T04:40:14;6.15;;;4.90;;
13102;SDS011;52970;46.752;17.108;2022-12-24T04:42:39;6.90;;;6.00;;
13102;SDS011;52970;46.752;17.108;2022-12-24T04:45:05;6.15;;;5.55;;
13102;SDS011;52970;46.752;17.108;2022-12-24T04:47:30;5.90;;;5.28;;
13102;SDS011;52970;46.752;17.108;2022-12-24T04:49:55;5.75;;;4.57;;
13102;SDS011;52970;46.752;17.108;2022-12-24T04:52:21;6.35;;;4.75;;
13102;SDS011;52970;46.752;17.108;2022-12-24T04:54:46;5.78;;;4.80;;
13102;SDS011;52970;46.752;17.108;2022-12-24T04:57:11;7.13;;;5.03;;
13102;SDS011;52970;46.752;17.108;2022-12-24T04:59:36;5.15;;;4.65;;
13102;SDS011;52970;46.752;17.108;2022-12-24T05:02:02;40.50;;;23.42;;
13102;SDS011;52970;46.752;17.108;2022-12-24T05:04:27;22.55;;;13.07;;
13102;SDS011;52970;46.752;17.108;2022-12-24T05:06:52;13.93;;;8.98;;
13102;SDS011;52970;46.752;17.108;2022-12-24T05:09:18;11.65;;;7.97;;
13102;SDS011;52970;46.752;17.108;2022-12-24T05:11:43;12.02;;;7.68;;
13102;SDS011;52970;46.752;17.108;2022-12-24T05:14:08;8.60;;;6.90;;
13102;SDS011;52970;46.752;17.108;2022-12-24T05:16:34;8.88;;;6.60;;
13102;SDS011;52970;46.752;17.108;2022-12-24T05:18:59;9.77;;;7.03;;
13102;SDS011;52970;46.752;17.108;2022-12-24T05:21:24;7.75;;;7.05;;
13102;SDS011;52970;46.752;17.108;2022-12-24T05:23:49;9.35;;;6.22;;
13102;SDS011;52970;46.752;17.108;2022-12-24T05:29:02;7.80;;;6.40;;
13102;SDS011;52970;46.752;17.108;2022-12-24T05:31:28;8.60;;;7.05;;
13102;SDS011;52970;46.752;17.108;2022-12-24T05:33:54;9.93;;;7.03;;
13102;SDS011;52970;46.752;17.108;2022-12-24T05:36:20;7.30;;;6.53;;
13102;SDS011;52970;46.752;17.108;2022-12-24T05:38:45;8.25;;;7.28;;
13102;SDS011;52970;46.752;17.108;2022-12-24T05:41:10;7.80;;;6.50;;
13102;SDS011;52970;46.752;17.108;2022-12-24T05:43:36;8.45;;;7.20;;
13102;SDS011;52970;46.752;17.108;2022-12-24T05:46:04;7.53;;;6.72;;
13102;SDS011;52970;46.752;17.108;2022-12-24T05:48:30;8.40;;;6.93;;
13102;SDS011;52970;46.752;17.108;2022-12-24T05:50:56;8.70;;;7.35;;
13102;SDS011;52970;46.752;17.108;2022-12-24T05:53:21;6.85;;;5.97;;
13102;SDS011;52970;46.752;17.108;2022-12-24T05:55:47;7.35;;;6.65;;
13102;SDS011;52970;46.752;17.108;2022-12-24T05:58:12;7.35;;;6.10;;
13102;SDS011;52970;46.752;17.108;2022-12-24T06:00:37;10.07;;;8.32;;
13102;SDS011;52970;46.752;17.108;2022-12-24T06:03:03;7.85;;;6.85;;
13102;SDS011;52970;46.752;17.108;2022-12-24T06:05:28;9.13;;;6.35;;
13102;SDS011;52970;46.752;17.108;2022-12-24T06:07:53;7.32;;;6.05;;
13102;SDS011;52970;46.752;17.108;2022-12-24T06:10:18;7.30;;;6.25;;
13102;SDS011;52970;46.752;17.108;2022-12-24T06:12:44;7.93;;;6.63;;
13102;SDS011;52970;46.752;17.108;2022-12-24T06:15:09;8.43;;;6.50;;
13102;SDS011;52970;46.752;17.108;2022-12-24T06:17:35;9.57;;;7.22;;
13102;SDS011;52970;46.752;17.108;2022-12-24T06:20:00;8.88;;;7.18;;
13102;SDS011;52970;46.752;17.108;2022-12-24T06:22:25;19.15;;;11.68;;
13102;SDS011;52970;46.752;17.108;2022-12-24T06:24:50;15.93;;;10.38;;
13102;SDS011;52970;46.752;17.108;2022-12-24T06:27:16;9.77;;;7.60;;
13102;SDS011;52970;46.752;17.108;2022-12-24T06:29:41;11.10;;;8.07;;
13102;SDS011;52970;46.752;17.108;2022-12-24T06:32:06;10.75;;;8.02;;
13102;SDS011;52970;46.752;17.108;2022-12-24T06:34:31;12.57;;;8.80;;
13102;SDS011;52970;46.752;17.108;2022-12-24T06:36:57;8.60;;;7.03;;
13102;SDS011;52970;46.752;17.108;2022-12-24T06:39:22;5.53;;;4.78;;
13102;SDS011;52970;46.752;17.108;2022-12-24T06:41:47;7.03;;;5.03;;
13102;SDS011;52970;46.752;17.108;2022-12-24T06:44:12;5.45;;;4.32;;
13102;SDS011;52970;46.752;17.108;2022-12-24T06:46:38;5.70;;;4.40;;
13102;SDS011;52970;46.752;17.108;2022-12-24T06:49:03;6.25;;;4.45;;
13102;SDS011;52970;46.752;17.108;2022-12-24T06:51:28;5.60;;;4.63;;
13102;SDS011;52970;46.752;17.108;2022-12-24T06:53:54;4.53;;;3.78;;
13102;SDS011;52970;46.752;17.108;2022-12-24T06:56:19;4.30;;;3.90;;
13102;SDS011;52970;46.752;17.108;2022-12-24T06:58:44;4.30;;;3.90;;
13102;SDS011;52970;46.752;17.108;2022-12-24T07:01:11;5.97;;;5.40;;
13102;SDS011;52970;46.752;17.108;2022-12-24T07:03:37;7.63;;;4.50;;
13102;SDS011;52970;46.752;17.108;2022-12-24T07:06:02;5.72;;;4.93;;
13102;SDS011;52970;46.752;17.108;2022-12-24T07:08:27;4.93;;;4.53;;
13102;SDS011;52970;46.752;17.108;2022-12-24T07:10:53;5.13;;;4.40;;
13102;SDS011;52970;46.752;17.108;2022-12-24T07:13:18;5.57;;;4.32;;
13102;SDS011;52970;46.752;17.108;2022-12-24T07:15:43;4.85;;;4.35;;
13102;SDS011;52970;46.752;17.108;2022-12-24T07:18:09;5.68;;;4.20;;
13102;SDS011;52970;46.752;17.108;2022-12-24T07:20:34;4.30;;;3.80;;
13102;SDS011;52970;46.752;17.108;2022-12-24T07:22:59;4.53;;;3.83;;
13102;SDS011;52970;46.752;17.108;2022-12-24T07:25:25;30.70;;;20.00;;
13102;SDS011;52970;46.752;17.108;2022-12-24T07:27:50;10.15;;;7.75;;
13102;SDS011;52970;46.752;17.108;2022-12-24T07:30:16;8.85;;;5.97;;
13102;SDS011;52970;46.752;17.108;2022-12-24T07:32:41;6.65;;;5.28;;
13102;SDS011;52970;46.752;17.108;2022-12-24T07:35:07;6.53;;;5.60;;
13102;SDS011;52970;46.752;17.108;2022-12-24T07:37:32;5.65;;;5.00;;
13102;SDS011;52970;46.752;17.108;2022-12-24T07:39:58;5.30;;;4.68;;
13102;SDS011;52970;46.752;17.108;2022-12-24T07:42:23;4.63;;;4.13;;
13102;SDS011;52970;46.752;17.108;2022-12-24T07:44:48;5.25;;;4.75;;
13102;SDS011;52970;46.752;17.108;2022-12-24T07:47:14;5.03;;;4.35;;
13102;SDS011;52970;46.752;17.108;2022-12-24T07:49:39;5.00;;;4.18;;
13102;SDS011;52970;46.752;17.108;2022-12-24T07:52:05;4.47;;;4.07;;
13102;SDS011;52970;46.752;17.108;2022-12-24T07:54:30;5.30;;;4.80;;
13102;SDS011;52970;46.752;17.108;2022-12-24T07:56:55;5.00;;;4.40;;
13102;SDS011;52970;46.752;17.108;2022-12-24T07:59:21;5.10;;;4.28;;
13102;SDS011;52970;46.752;17.108;2022-12-24T08:01:46;5.72;;;4.22;;
13102;SDS011;52970;46.752;17.108;2022-12-24T08:04:11;7.03;;;5.18;;
13102;SDS011;52970;46.752;17.108;2022-12-24T08:06:37;7.93;;;5.30;;
13102;SDS011;52970;46.752;17.108;2022-12-24T08:09:02;9.00;;;5.32;;
13102;SDS011;52970;46.752;17.108;2022-12-24T08:11:28;4.93;;;4.28;;
13102;SDS011;52970;46.752;17.108;2022-12-24T08:13:53;10.25;;;9.30;;
13102;SDS011;52970;46.752;17.108;2022-12-24T08:16:18;8.25;;;7.15;;
13102;SDS011;52970;46.752;17.108;2022-12-24T08:18:44;6.85;;;6.15;;
13102;SDS011;52970;46.752;17.108;2022-12-24T08:21:09;7.68;;;6.88;;
13102;SDS011;52970;46.752;17.108;2022-12-24T08:23:35;4.65;;;4.25;;
13102;SDS011;52970;46.752;17.108;2022-12-24T08:26:00;4.88;;;4.38;;
13102;SDS011;52970;46.752;17.108;2022-12-24T08:28:25;4.65;;;4.25;;
13102;SDS011;52970;46.752;17.108;2022-12-24T08:30:51;4.50;;;4.10;;
13102;SDS011;52970;46.752;17.108;2022-12-24T08:33:16;6.30;;;5.70;;
13102;SDS011;52970;46.752;17.108;2022-12-24T08:35:51;7.75;;;6.28;;
13102;SDS011;52970;46.752;17.108;2022-12-24T08:38:17;6.78;;;5.97;;
13102;SDS011;52970;46.752;17.108;2022-12-24T08:40:43;6.15;;;5.55;;
13102;SDS011;52970;46.752;17.108;2022-12-24T08:43:08;5.60;;;5.03;;
13102;SDS011;52970;46.752;17.108;2022-12-24T08:45:34;5.40;;;4.90;;
13102;SDS011;52970;46.752;17.108;2022-12-24T08:47:59;6.80;;;6.10;;
13102;SDS011;52970;46.752;17.108;2022-12-24T08:50:24;20.00;;;17.88;;
13102;SDS011;52970;46.752;17.108;2022-12-24T08:52:50;21.10;;;18.13;;
13102;SDS011;52970;46.752;17.108;2022-12-24T08:55:15;11.18;;;9.13;;
13102;SDS011;52970;46.752;17.108;2022-12-24T08:57:40;8.77;;;6.93;;
13102;SDS011;52970;46.752;17.108;2022-12-24T09:00:06;10.00;;;6.60;;
13102;SDS011;52970;46.752;17.108;2022-12-24T09:02:32;18.13;;;11.88;;
13102;SDS011;52970;46.752;17.108;2022-12-24T09:04:57;19.23;;;14.57;;
13102;SDS011;52970;46.752;17.108;2022-12-24T09:07:23;49.95;;;38.10;;
13102;SDS011;52970;46.752;17.108;2022-12-24T09:09:49;30.50;;;24.88;;
13102;SDS011;52970;46.752;17.108;2022-12-24T09:12:14;21.35;;;19.23;;
13102;SDS011;52970;46.752;17.108;2022-12-24T09:14:39;19.70;;;16.92;;
13102;SDS011;52970;46.752;17.108;2022-12-24T09:17:05;12.35;;;10.40;;
13102;SDS011;52970;46.752;17.108;2022-12-24T09:19:30;7.07;;;6.38;;
13102;SDS011;52970;46.752;17.108;2022-12-24T09:21:55;5.95;;;5.35;;
13102;SDS011;52970;46.752;17.108;2022-12-24T09:24:20;7.18;;;6.22;;
13102;SDS011;52970;46.752;17.108;2022-12-24T09:26:46;7.63;;;6.63;;
13102;SDS011;52970;46.752;17.108;2022-12-24T09:29:13;11.60;;;6.57;;
13102;SDS011;52970;46.752;17.108;2022-12-24T09:31:39;5.97;;;5.38;;
13102;SDS011;52970;46.752;17.108;2022-12-24T09:34:04;5.80;;;4.25;;
13102;SDS011;52970;46.752;17.108;2022-12-24T09:36:29;4.60;;;3.85;;
13102;SDS011;52970;46.752;17.108;2022-12-24T09:38:54;4.15;;;3.83;;
13102;SDS011;52970;46.752;17.108;2022-12-24T09:41:32;4.50;;;4.05;;
13102;SDS011;52970;46.752;17.108;2022-12-24T09:44:00;4.60;;;3.72;;
13102;SDS011;52970;46.752;17.108;2022-12-24T09:46:29;4.20;;;3.80;;
13102;SDS011;52970;46.752;17.108;2022-12-24T09:49:03;6.93;;;5.07;;
13102;SDS011;52970;46.752;17.108;2022-12-24T09:52:13;5.18;;;4.68;;
13102;SDS011;52970;46.752;17.108;2022-12-24T09:56:44;6.10;;;5.43;;
13102;SDS011;52970;46.752;17.108;2022-12-24T09:59:12;6.35;;;4.95;;
13102;SDS011;52970;46.752;17.108;2022-12-24T10:01:38;6.25;;;5.63;;
13102;SDS011;52970;46.752;17.108;2022-12-24T10:04:06;4.60;;;4.20;;
13102;SDS011;52970;46.752;17.108;2022-12-24T10:06:39;5.68;;;4.38;;
13102;SDS011;52970;46.752;17.108;2022-12-24T10:14:57;7.20;;;6.50;;
13102;SDS011;52970;46.752;17.108;2022-12-24T10:19:38;11.10;;;9.82;;
13102;SDS011;52970;46.752;17.108;2022-12-24T10:22:07;16.92;;;11.70;;
13102;SDS011;52970;46.752;17.108;2022-12-24T10:24:46;16.10;;;13.00;;
13102;SDS011;52970;46.752;17.108;2022-12-24T10:27:14;26.75;;;19.33;;
13102;SDS011;52970;46.752;17.108;2022-12-24T10:29:45;27.40;;;19.30;;
13102;SDS011;52970;46.752;17.108;2022-12-24T10:34:44;31.85;;;22.95;;
13102;SDS011;52970;46.752;17.108;2022-12-24T10:37:14;57.25;;;37.72;;
13102;SDS011;52970;46.752;17.108;2022-12-24T10:39:39;71.63;;;47.88;;
13102;SDS011;52970;46.752;17.108;2022-12-24T10:42:05;56.08;;;41.58;;
13102;SDS011;52970;46.752;17.108;2022-12-24T10:44:31;68.25;;;49.97;;
13102;SDS011;52970;46.752;17.108;2022-12-24T10:46:56;55.38;;;40.55;;
13102;SDS011;52970;46.752;17.108;2022-12-24T10:49:33;55.28;;;39.78;;
13102;SDS011;52970;46.752;17.108;2022-12-24T10:54:28;47.65;;;34.80;;
13102;SDS011;52970;46.752;17.108;2022-12-24T10:57:02;57.13;;;39.58;;
13102;SDS011;52970;46.752;17.108;2022-12-24T11:02:03;38.92;;;29.25;;
13102;SDS011;52970;46.752;17.108;2022-12-24T11:04:29;42.28;;;29.23;;
13102;SDS011;52970;46.752;17.108;2022-12-24T11:09:28;24.25;;;19.80;;
13102;SDS011;52970;46.752;17.108;2022-12-24T11:11:54;28.27;;;21.88;;
13102;SDS011;52970;46.752;17.108;2022-12-24T11:14:20;28.33;;;22.13;;
13102;SDS011;52970;46.752;17.108;2022-12-24T11:16:54;31.40;;;24.40;;
13102;SDS011;52970;46.752;17.108;2022-12-24T11:19:33;32.60;;;24.15;;
13102;SDS011;52970;46.752;17.108;2022-12-24T11:22:04;32.80;;;23.67;;
13102;SDS011;52970;46.752;17.108;2022-12-24T11:24:31;31.33;;;22.88;;
13102;SDS011;52970;46.752;17.108;2022-12-24T11:29:42;29.17;;;20.88;;
13102;SDS011;52970;46.752;17.108;2022-12-24T11:32:18;34.55;;;24.20;;
13102;SDS011;52970;46.752;17.108;2022-12-24T11:34:43;36.70;;;25.23;;
13102;SDS011;52970;46.752;17.108;2022-12-24T11:37:12;37.47;;;24.92;;
13102;SDS011;52970;46.752;17.108;2022-12-24T11:39:39;61.20;;;36.88;;
13102;SDS011;52970;46.752;17.108;2022-12-24T11:42:05;45.08;;;30.05;;
13102;SDS011;52970;46.752;17.108;2022-12-24T11:44:31;19.63;;;14.23;;
13102;SDS011;52970;46.752;17.108;2022-12-24T11:46:56;18.73;;;14.68;;
13102;SDS011;52970;46.752;17.108;2022-12-24T11:49:29;18.83;;;13.60;;
13102;SDS011;52970;46.752;17.108;2022-12-24T11:54:26;11.05;;;8.52;;
13102;SDS011;52970;46.752;17.108;2022-12-24T11:56:56;11.45;;;8.25;;
13102;SDS011;52970;46.752;17.108;2022-12-24T11:59:29;20.55;;;16.08;;
13102;SDS011;52970;46.752;17.108;2022-12-24T12:01:57;16.63;;;14.10;;
13102;SDS011;52970;46.752;17.108;2022-12-24T12:04:24;13.30;;;11.18;;
13102;SDS011;52970;46.752;17.108;2022-12-24T12:09:30;11.05;;;9.88;;
13102;SDS011;52970;46.752;17.108;2022-12-24T12:14:35;9.57;;;8.35;;
13102;SDS011;52970;46.752;17.108;2022-12-24T12:19:42;16.58;;;13.65;;
13102;SDS011;52970;46.752;17.108;2022-12-24T12:22:12;17.13;;;13.52;;
13102;SDS011;52970;46.752;17.108;2022-12-24T12:24:43;15.35;;;11.15;;
13102;SDS011;52970;46.752;17.108;2022-12-24T12:27:18;6.15;;;5.53;;
13102;SDS011;52970;46.752;17.108;2022-12-24T12:29:53;19.45;;;14.32;;
13102;SDS011;52970;46.752;17.108;2022-12-24T12:35:17;31.33;;;24.33;;
13102;SDS011;52970;46.752;17.108;2022-12-24T12:37:47;62.47;;;46.35;;
13102;SDS011;52970;46.752;17.108;2022-12-24T12:40:16;40.83;;;33.88;;
13102;SDS011;52970;46.752;17.108;2022-12-24T12:42:47;30.10;;;26.88;;
13102;SDS011;52970;46.752;17.108;2022-12-24T12:53:04;14.30;;;11.85;;
13102;SDS011;52970;46.752;17.108;2022-12-24T12:55:40;11.63;;;10.40;;
13102;SDS011;52970;46.752;17.108;2022-12-24T12:58:11;12.77;;;8.93;;
13102;SDS011;52970;46.752;17.108;2022-12-24T13:00:39;13.75;;;8.48;;
13102;SDS011;52970;46.752;17.108;2022-12-24T13:16:41;27.50;;;19.45;;
13102;SDS011;52970;46.752;17.108;2022-12-24T13:21:55;35.72;;;24.00;;
13102;SDS011;52970;46.752;17.108;2022-12-24T13:24:21;42.17;;;29.95;;
13102;SDS011;52970;46.752;17.108;2022-12-24T13:27:01;29.20;;;22.27;;
13102;SDS011;52970;46.752;17.108;2022-12-24T13:35:30;20.60;;;13.73;;
13102;SDS011;52970;46.752;17.108;2022-12-24T13:42:45;14.40;;;9.77;;
13102;SDS011;52970;46.752;17.108;2022-12-24T13:45:39;10.90;;;8.15;;
13102;SDS011;52970;46.752;17.108;2022-12-24T13:53:00;10.13;;;7.30;;
13102;SDS011;52970;46.752;17.108;2022-12-24T13:55:26;17.60;;;11.05;;
13102;SDS011;52970;46.752;17.108;2022-12-24T13:57:56;10.50;;;9.38;;
13102;SDS011;52970;46.752;17.108;2022-12-24T14:05:37;10.68;;;8.55;;
13102;SDS011;52970;46.752;17.108;2022-12-24T14:08:04;12.73;;;9.25;;
13102;SDS011;52970;46.752;17.108;2022-12-24T14:10:34;19.88;;;12.23;;
13102;SDS011;52970;46.752;17.108;2022-12-24T14:13:00;15.18;;;10.85;;
13102;SDS011;52970;46.752;17.108;2022-12-24T14:18:10;14.32;;;11.40;;
13102;SDS011;52970;46.752;17.108;2022-12-24T14:20:40;17.13;;;12.25;;
13102;SDS011;52970;46.752;17.108;2022-12-24T14:23:06;13.93;;;11.30;;
13102;SDS011;52970;46.752;17.108;2022-12-24T14:25:39;14.63;;;11.13;;
13102;SDS011;52970;46.752;17.108;2022-12-24T14:28:06;15.13;;;11.57;;
13102;SDS011;52970;46.752;17.108;2022-12-24T14:30:37;13.77;;;10.73;;
13102;SDS011;52970;46.752;17.108;2022-12-24T14:33:02;12.80;;;9.98;;
13102;SDS011;52970;46.752;17.108;2022-12-24T14:35:37;12.57;;;9.23;;
13102;SDS011;52970;46.752;17.108;2022-12-24T14:38:13;11.88;;;9.27;;
13102;SDS011;52970;46.752;17.108;2022-12-24T14:40:47;13.48;;;9.85;;
13102;SDS011;52970;46.752;17.108;2022-12-24T14:43:20;11.45;;;8.95;;
13102;SDS011;52970;46.752;17.108;2022-12-24T14:48:38;9.32;;;8.40;;
13102;SDS011;52970;46.752;17.108;2022-12-24T14:55:55;12.60;;;9.90;;
13102;SDS011;52970;46.752;17.108;2022-12-24T14:58:25;12.75;;;9.73;;
13102;SDS011;52970;46.752;17.108;2022-12-24T15:00:52;13.77;;;11.15;;
13102;SDS011;52970;46.752;17.108;2022-12-24T15:03:18;18.10;;;12.48;;
13102;SDS011;52970;46.752;17.108;2022-12-24T15:05:45;17.30;;;13.32;;
13102;SDS011;52970;46.752;17.108;2022-12-24T15:08:15;21.23;;;13.70;;
13102;SDS011;52970;46.752;17.108;2022-12-24T15:10:42;17.08;;;13.75;;
13102;SDS011;52970;46.752;17.108;2022-12-24T15:13:25;15.00;;;12.25;;
13102;SDS011;52970;46.752;17.108;2022-12-24T15:15:54;13.88;;;11.75;;
13102;SDS011;52970;46.752;17.108;2022-12-24T15:18:21;14.35;;;10.70;;
13102;SDS011;52970;46.752;17.108;2022-12-24T15:20:48;12.25;;;10.02;;
13102;SDS011;52970;46.752;17.108;2022-12-24T15:23:19;12.52;;;9.18;;
13102;SDS011;52970;46.752;17.108;2022-12-24T15:25:44;10.93;;;9.25;;
13102;SDS011;52970;46.752;17.108;2022-12-24T15:28:16;11.00;;;7.80;;
13102;SDS011;52970;46.752;17.108;2022-12-24T15:30:42;9.05;;;6.93;;
13102;SDS011;52970;46.752;17.108;2022-12-24T15:33:08;8.23;;;6.22;;
13102;SDS011;52970;46.752;17.108;2022-12-24T15:35:53;8.60;;;6.32;;
13102;SDS011;52970;46.752;17.108;2022-12-24T15:40:47;10.23;;;6.18;;
13102;SDS011;52970;46.752;17.108;2022-12-24T15:43:13;8.52;;;5.90;;
13102;SDS011;52970;46.752;17.108;2022-12-24T15:45:39;8.05;;;6.00;;
13102;SDS011;52970;46.752;17.108;2022-12-24T15:48:07;6.32;;;5.63;;
13102;SDS011;52970;46.752;17.108;2022-12-24T15:50:35;6.03;;;5.53;;
13102;SDS011;52970;46.752;17.108;2022-12-24T15:53:01;8.13;;;5.88;;
13102;SDS011;52970;46.752;17.108;2022-12-24T15:55:28;8.82;;;5.88;;
13102;SDS011;52970;46.752;17.108;2022-12-24T15:57:53;7.78;;;5.65;;
13102;SDS011;52970;46.752;17.108;2022-12-24T16:00:21;7.65;;;5.57;;
13102;SDS011;52970;46.752;17.108;2022-12-24T16:02:47;6.97;;;5.50;;
13102;SDS011;52970;46.752;17.108;2022-12-24T16:05:32;6.63;;;5.35;;
13102;SDS011;52970;46.752;17.108;2022-12-24T16:10:40;9.88;;;5.97;;
13102;SDS011;52970;46.752;17.108;2022-12-24T16:13:13;6.40;;;4.95;;
13102;SDS011;52970;46.752;17.108;2022-12-24T16:15:51;6.38;;;5.38;;
13102;SDS011;52970;46.752;17.108;2022-12-24T16:18:17;7.00;;;5.00;;
13102;SDS011;52970;46.752;17.108;2022-12-24T16:20:47;6.53;;;5.43;;
13102;SDS011;52970;46.752;17.108;2022-12-24T16:23:15;5.95;;;5.32;;
13102;SDS011;52970;46.752;17.108;2022-12-24T16:25:40;12.70;;;7.07;;